createdAt,value
2018-08-17T00:00:22.847Z,21.90
2018-08-17T00:02:51.239Z,21.80
2018-08-17T00:05:19.819Z,21.80
2018-08-17T00:07:48.281Z,21.80
2018-08-17T00:10:22.095Z,21.70
2018-08-17T00:12:50.697Z,21.50
2018-08-17T00:15:19.216Z,21.50
2018-08-17T00:17:47.641Z,21.30
2018-08-17T00:20:16.193Z,21.30
2018-08-17T00:22:44.719Z,21.30
2018-08-17T00:25:13.090Z,21.30
2018-08-17T00:27:41.484Z,21.40
2018-08-17T00:30:10.253Z,21.40
2018-08-17T00:32:38.618Z,21.30
2018-08-17T00:35:07.037Z,21.40
2018-08-17T00:37:35.508Z,21.40
2018-08-17T00:40:03.941Z,21.40
2018-08-17T00:42:32.330Z,21.40
2018-08-17T00:45:00.758Z,21.40
2018-08-17T00:47:29.162Z,21.30
2018-08-17T00:49:57.519Z,21.20
2018-08-17T00:52:25.946Z,21.20
2018-08-17T00:54:54.371Z,21.10
2018-08-17T00:57:22.771Z,21.10
2018-08-17T00:59:51.180Z,21.20
2018-08-17T01:02:19.575Z,21.20
2018-08-17T01:04:47.974Z,21.20
2018-08-17T01:07:16.384Z,21.20
2018-08-17T01:09:44.764Z,21.20
2018-08-17T01:12:13.178Z,21.10
2018-08-17T01:14:41.611Z,21.20
2018-08-17T01:17:10.023Z,21.30
2018-08-17T01:19:38.454Z,21.30
2018-08-17T01:22:06.837Z,21.20
2018-08-17T01:24:35.257Z,21.20
2018-08-17T01:27:03.646Z,21.20
2018-08-17T01:29:32.375Z,21.10
2018-08-17T01:32:00.693Z,21.00
2018-08-17T01:34:29.118Z,21.10
2018-08-17T01:36:57.676Z,21.10
2018-08-17T01:39:26.074Z,21.10
2018-08-17T01:41:54.416Z,21.10
2018-08-17T01:44:22.841Z,21.00
2018-08-17T01:46:51.211Z,21.00
2018-08-17T01:49:19.629Z,20.90
2018-08-17T01:51:47.999Z,20.90
2018-08-17T01:54:16.353Z,20.80
2018-08-17T01:56:44.821Z,20.80
2018-08-17T01:59:13.371Z,20.90
2018-08-17T02:01:41.758Z,20.90
2018-08-17T02:04:10.190Z,20.90
2018-08-17T02:06:38.603Z,20.80
2018-08-17T02:09:08.992Z,20.80
2018-08-17T02:11:37.401Z,20.70
2018-08-17T02:14:05.776Z,20.70
2018-08-17T02:16:34.366Z,20.80
2018-08-17T02:19:02.781Z,20.90
2018-08-17T02:21:31.146Z,20.80
2018-08-17T02:23:59.738Z,20.80
2018-08-17T02:26:28.210Z,20.80
2018-08-17T02:28:56.683Z,20.80
2018-08-17T02:31:25.068Z,20.70
2018-08-17T02:33:53.735Z,20.60
2018-08-17T02:36:22.114Z,20.60
2018-08-17T02:38:50.654Z,20.60
2018-08-17T02:41:19.081Z,20.60
2018-08-17T02:43:47.571Z,20.70
2018-08-17T02:46:16.054Z,20.70
2018-08-17T02:48:44.455Z,20.70
2018-08-17T02:51:12.856Z,20.60
2018-08-17T02:53:41.308Z,20.50
2018-08-17T02:56:09.734Z,20.50
2018-08-17T02:58:38.156Z,20.60
2018-08-17T03:01:06.543Z,20.60
2018-08-17T03:03:34.967Z,20.70
2018-08-17T03:06:04.668Z,20.60
2018-08-17T03:08:33.040Z,20.60
2018-08-17T03:11:01.444Z,20.60
2018-08-17T03:13:29.774Z,20.60
2018-08-17T03:15:58.154Z,20.70
2018-08-17T03:18:26.559Z,20.70
2018-08-17T03:20:54.983Z,20.80
2018-08-17T03:23:23.418Z,20.80
2018-08-17T03:25:51.805Z,20.70
2018-08-17T03:28:20.273Z,20.70
2018-08-17T03:30:48.671Z,20.60
2018-08-17T03:33:17.138Z,20.70
2018-08-17T03:35:45.529Z,20.70
2018-08-17T03:38:14.008Z,20.60
2018-08-17T03:40:42.516Z,20.70
2018-08-17T03:43:10.887Z,20.70
2018-08-17T03:45:39.353Z,20.70
2018-08-17T03:48:08.218Z,20.70
2018-08-17T03:50:36.714Z,20.70
2018-08-17T03:53:05.190Z,20.70
2018-08-17T03:55:33.675Z,20.80
2018-08-17T03:58:02.085Z,20.80
2018-08-17T04:00:30.487Z,20.70
2018-08-17T04:02:58.881Z,20.80
2018-08-17T04:05:27.277Z,20.80
2018-08-17T04:07:55.636Z,20.90
2018-08-17T04:10:24.039Z,20.90
2018-08-17T04:12:52.390Z,20.90
2018-08-17T04:15:20.802Z,21.00
2018-08-17T04:17:49.212Z,21.00
2018-08-17T04:20:17.606Z,21.10
2018-08-17T04:22:45.977Z,20.90
2018-08-17T04:25:14.371Z,21.00
2018-08-17T04:27:42.898Z,21.10
2018-08-17T04:30:11.298Z,21.20
2018-08-17T04:32:39.691Z,21.10
2018-08-17T04:35:08.083Z,21.10
2018-08-17T04:37:36.498Z,21.10
2018-08-17T04:40:04.937Z,21.00
2018-08-17T04:42:33.325Z,21.10
2018-08-17T04:45:01.740Z,21.00
2018-08-17T04:47:30.114Z,21.00
2018-08-17T04:49:58.494Z,21.10
2018-08-17T04:52:26.845Z,21.00
2018-08-17T04:54:55.312Z,21.00
2018-08-17T04:57:23.701Z,21.10
2018-08-17T04:59:52.154Z,21.10
2018-08-17T05:02:20.550Z,21.10
2018-08-17T05:04:48.917Z,21.00
2018-08-17T05:07:17.374Z,20.90
2018-08-17T05:09:45.768Z,21.00
2018-08-17T05:12:14.129Z,21.00
2018-08-17T05:14:42.553Z,21.00
2018-08-17T05:17:10.968Z,21.20
2018-08-17T05:19:39.396Z,21.10
2018-08-17T05:22:07.802Z,21.10
2018-08-17T05:24:36.200Z,21.10
2018-08-17T05:27:04.631Z,21.10
2018-08-17T05:29:33.144Z,21.20
2018-08-17T05:32:01.567Z,21.20
2018-08-17T05:34:29.971Z,21.30
2018-08-17T05:36:58.375Z,21.50
2018-08-17T05:39:26.749Z,21.90
2018-08-17T05:41:55.266Z,22.10
2018-08-17T05:44:23.741Z,22.80
2018-08-17T05:46:52.139Z,23.50
2018-08-17T05:49:20.656Z,24.10
2018-08-17T05:51:49.017Z,24.70
2018-08-17T05:54:17.510Z,25.30
2018-08-17T05:56:46.199Z,25.60
2018-08-17T05:59:14.547Z,26.10
2018-08-17T06:01:43.195Z,26.40
2018-08-17T06:04:11.590Z,26.90
2018-08-17T06:06:40.053Z,27.10
2018-08-17T06:09:09.464Z,27.40
2018-08-17T06:11:38.401Z,27.50
2018-08-17T06:14:07.066Z,27.60
2018-08-17T06:16:35.486Z,27.50
2018-08-17T06:19:03.847Z,27.50
2018-08-17T06:21:32.234Z,27.30
2018-08-17T06:24:00.678Z,27.70
2018-08-17T06:26:29.065Z,27.60
2018-08-17T06:28:57.438Z,28.10
2018-08-17T06:31:25.829Z,27.30
2018-08-17T06:33:54.227Z,27.50
2018-08-17T06:36:22.610Z,27.70
2018-08-17T06:38:51.058Z,27.50
2018-08-17T06:41:19.415Z,27.70
2018-08-17T06:43:47.754Z,28.60
2018-08-17T06:46:16.150Z,29.50
2018-08-17T06:48:44.468Z,30.40
2018-08-17T06:51:12.821Z,30.80
2018-08-17T06:53:41.114Z,31.00
2018-08-17T06:56:09.478Z,31.10
2018-08-17T06:58:37.829Z,31.40
2018-08-17T07:01:06.310Z,32.00
2018-08-17T07:03:34.665Z,32.20
2018-08-17T07:06:03.131Z,31.30
2018-08-17T07:08:31.521Z,30.30
2018-08-17T07:10:59.838Z,31.00
2018-08-17T07:13:28.207Z,31.00
2018-08-17T07:15:56.591Z,31.10
2018-08-17T07:18:24.978Z,31.40
2018-08-17T07:20:53.442Z,32.10
2018-08-17T07:23:21.847Z,32.60
2018-08-17T07:25:50.210Z,32.70
2018-08-17T07:28:18.641Z,32.10
2018-08-17T07:30:47.054Z,32.20
2018-08-17T07:33:15.502Z,32.00
2018-08-17T07:35:43.881Z,31.90
2018-08-17T07:38:12.207Z,32.60
2018-08-17T07:40:40.518Z,32.40
2018-08-17T07:43:08.832Z,33.10
2018-08-17T07:45:37.518Z,33.90
2018-08-17T07:48:05.992Z,33.90
2018-08-17T07:50:34.263Z,33.40
2018-08-17T07:53:02.625Z,32.40
2018-08-17T07:55:31.000Z,32.30
2018-08-17T07:57:59.350Z,32.60
2018-08-17T08:00:27.790Z,33.10
2018-08-17T08:02:56.089Z,33.60
2018-08-17T08:05:24.446Z,33.40
2018-08-17T08:07:52.876Z,33.10
2018-08-17T08:10:21.220Z,33.20
2018-08-17T08:12:49.599Z,33.60
2018-08-17T08:15:17.945Z,33.20
2018-08-17T08:17:46.322Z,33.80
2018-08-17T08:20:27.939Z,33.90
2018-08-17T08:23:07.558Z,34.10
2018-08-17T08:25:35.967Z,34.50
2018-08-17T08:28:04.362Z,33.60
2018-08-17T08:30:32.839Z,33.30
2018-08-17T08:33:01.223Z,33.20
2018-08-17T08:35:29.610Z,33.40
2018-08-17T08:37:58.081Z,33.80
2018-08-17T08:40:26.453Z,32.90
2018-08-17T08:42:55.112Z,33.10
2018-08-17T08:45:23.619Z,33.70
2018-08-17T08:47:52.304Z,34.20
2018-08-17T08:50:20.830Z,34.70
2018-08-17T08:52:49.309Z,34.70
2018-08-17T08:55:17.958Z,34.90
2018-08-17T08:57:46.343Z,35.20
2018-08-17T09:00:14.803Z,34.60
2018-08-17T09:02:43.169Z,34.40
2018-08-17T09:05:11.537Z,34.90
2018-08-17T09:07:39.943Z,35.30
2018-08-17T09:10:09.583Z,35.60
2018-08-17T09:12:37.997Z,35.60
2018-08-17T09:15:07.850Z,34.80
2018-08-17T09:17:36.253Z,34.60
2018-08-17T09:20:05.559Z,35.10
2018-08-17T09:22:34.403Z,35.70
2018-08-17T09:25:02.791Z,36.10
2018-08-17T09:27:31.240Z,35.80
2018-08-17T09:29:59.646Z,35.30
2018-08-17T09:32:28.166Z,34.90
2018-08-17T09:34:56.978Z,34.70
2018-08-17T09:37:25.419Z,34.10
2018-08-17T09:39:53.749Z,34.30
2018-08-17T09:42:22.112Z,33.80
2018-08-17T09:44:50.474Z,34.40
2018-08-17T09:47:18.867Z,35.30
2018-08-17T09:49:47.190Z,35.40
2018-08-17T09:52:15.542Z,35.90
2018-08-17T09:54:43.931Z,36.50
2018-08-17T09:57:12.310Z,36.60
2018-08-17T09:59:40.647Z,35.90
2018-08-17T10:04:22.640Z,35.60
2018-08-17T10:06:56.155Z,35.10
2018-08-17T10:09:29.831Z,34.80
2018-08-17T10:11:58.198Z,35.20
2018-08-17T10:14:26.600Z,34.70
2018-08-17T10:16:54.945Z,34.20
2018-08-17T10:19:23.322Z,34.40
2018-08-17T10:21:52.851Z,34.70
2018-08-17T10:24:21.275Z,35.30
2018-08-17T10:26:50.817Z,35.40
2018-08-17T10:29:19.978Z,35.40
2018-08-17T10:31:49.043Z,35.30
2018-08-17T10:34:17.882Z,35.20
2018-08-17T10:36:46.647Z,35.40
2018-08-17T10:39:15.538Z,35.40
2018-08-17T10:41:43.959Z,34.60
2018-08-17T10:44:12.643Z,34.50
2018-08-17T10:46:41.584Z,34.50
2018-08-17T10:49:10.748Z,34.30
2018-08-17T10:51:39.190Z,34.90
2018-08-17T10:54:07.594Z,35.30
2018-08-17T10:56:35.941Z,34.80
2018-08-17T10:59:04.498Z,35.10
2018-08-17T11:01:32.965Z,35.20
2018-08-17T11:04:01.361Z,34.90
2018-08-17T11:06:29.740Z,34.00
2018-08-17T11:08:58.102Z,33.80
2018-08-17T11:11:26.449Z,33.90
2018-08-17T11:13:54.801Z,33.60
2018-08-17T11:16:23.165Z,33.60
2018-08-17T11:18:51.518Z,33.40
2018-08-17T11:21:19.911Z,33.10
2018-08-17T11:23:48.254Z,33.10
2018-08-17T11:26:16.631Z,33.30
2018-08-17T11:28:44.997Z,33.00
2018-08-17T11:31:13.352Z,32.60
2018-08-17T11:33:41.715Z,33.20
2018-08-17T11:36:10.089Z,33.00
2018-08-17T11:38:38.390Z,32.70
2018-08-17T11:41:09.916Z,33.50
2018-08-17T11:43:38.252Z,33.60
2018-08-17T11:46:07.321Z,33.90
2018-08-17T11:48:36.893Z,34.10
2018-08-17T11:51:05.262Z,34.60
2018-08-17T11:53:33.637Z,34.10
2018-08-17T11:56:02.029Z,33.80
2018-08-17T11:58:30.392Z,34.30
2018-08-17T12:00:58.864Z,34.40
2018-08-17T12:03:27.189Z,34.20
2018-08-17T12:05:55.586Z,34.50
2018-08-17T12:08:24.089Z,34.60
2018-08-17T12:10:57.331Z,34.40
2018-08-17T12:13:26.256Z,34.00
2018-08-17T12:15:56.139Z,33.60
2018-08-17T12:18:24.699Z,33.70
2018-08-17T12:20:53.434Z,33.70
2018-08-17T12:23:21.873Z,33.30
2018-08-17T12:25:54.495Z,33.60
2018-08-17T12:28:23.427Z,34.20
2018-08-17T12:30:51.813Z,34.30
2018-08-17T12:33:20.190Z,34.50
2018-08-17T12:35:48.620Z,34.30
2018-08-17T12:38:17.838Z,33.60
2018-08-17T12:40:56.519Z,33.90
2018-08-17T12:43:30.313Z,34.50
2018-08-17T12:45:58.652Z,34.20
2018-08-17T12:48:27.029Z,34.00
2018-08-17T12:50:59.836Z,34.00
2018-08-17T12:53:28.237Z,34.20
2018-08-17T12:55:56.555Z,34.10
2018-08-17T12:58:24.924Z,34.20
2018-08-17T13:00:53.263Z,34.30
2018-08-17T13:03:21.604Z,34.00
2018-08-17T13:05:49.986Z,34.20
2018-08-17T13:08:18.478Z,34.40
2018-08-17T13:10:47.135Z,34.20
2018-08-17T13:13:15.572Z,34.10
2018-08-17T13:15:49.556Z,34.10
2018-08-17T13:18:21.832Z,33.40
2018-08-17T13:20:50.495Z,33.70
2018-08-17T13:23:18.892Z,34.30
2018-08-17T13:25:47.271Z,34.70
2018-08-17T13:28:15.595Z,34.60
2018-08-17T13:30:43.948Z,34.50
2018-08-17T13:33:12.310Z,33.90
2018-08-17T13:35:40.743Z,33.60
2018-08-17T13:38:09.227Z,33.20
2018-08-17T13:40:37.567Z,33.30
2018-08-17T13:43:05.982Z,33.50
2018-08-17T13:45:34.356Z,33.30
2018-08-17T13:48:02.714Z,33.90
2018-08-17T13:50:31.203Z,34.30
2018-08-17T13:53:03.742Z,34.50
2018-08-17T13:55:32.189Z,34.10
2018-08-17T13:58:00.473Z,33.60
2018-08-17T14:00:28.918Z,33.20
2018-08-17T14:02:57.295Z,33.20
2018-08-17T14:05:25.674Z,33.80
2018-08-17T14:07:54.039Z,33.10
2018-08-17T14:10:22.411Z,33.10
2018-08-17T14:12:50.864Z,33.10
2018-08-17T14:15:19.492Z,32.90
2018-08-17T14:17:47.821Z,32.20
2018-08-17T14:20:16.574Z,31.50
2018-08-17T14:22:44.954Z,31.50
2018-08-17T14:25:13.258Z,31.40
2018-08-17T14:27:41.832Z,31.60
2018-08-17T14:30:15.210Z,31.50
2018-08-17T14:32:44.001Z,31.50
2018-08-17T14:35:12.482Z,31.30
2018-08-17T14:37:40.898Z,31.20
2018-08-17T14:40:10.503Z,31.20
2018-08-17T14:42:38.958Z,30.90
2018-08-17T14:45:08.302Z,30.90
2018-08-17T14:47:37.083Z,30.90
2018-08-17T14:50:08.442Z,30.70
2018-08-17T14:52:36.913Z,30.10
2018-08-17T14:55:05.701Z,30.10
2018-08-17T14:57:34.198Z,30.30
2018-08-17T15:00:02.636Z,30.00
2018-08-17T15:02:31.003Z,30.10
2018-08-17T15:04:59.388Z,30.00
2018-08-17T15:07:27.724Z,30.00
2018-08-17T15:09:56.138Z,29.80
2018-08-17T15:12:24.479Z,30.00
2018-08-17T15:14:52.848Z,30.10
2018-08-17T15:17:21.225Z,30.40
2018-08-17T15:19:49.641Z,30.50
2018-08-17T15:22:18.097Z,30.90
2018-08-17T15:24:46.449Z,31.20
2018-08-17T15:27:14.849Z,31.40
2018-08-17T15:29:43.213Z,31.20
2018-08-17T15:32:11.634Z,31.20
2018-08-17T15:34:39.955Z,31.10
2018-08-17T15:37:08.437Z,31.00
2018-08-17T15:39:36.827Z,30.70
2018-08-17T15:42:05.314Z,30.50
2018-08-17T15:44:34.329Z,30.40
2018-08-17T15:47:02.686Z,30.40
2018-08-17T15:49:32.989Z,30.30
2018-08-17T15:52:02.657Z,30.30
2018-08-17T15:54:31.083Z,30.20
2018-08-17T15:56:59.514Z,30.10
2018-08-17T15:59:27.962Z,30.10
2018-08-17T16:01:56.442Z,29.90
2018-08-17T16:04:25.004Z,29.80
2018-08-17T16:06:53.478Z,29.70
2018-08-17T16:09:21.805Z,29.60
2018-08-17T16:11:50.200Z,29.50
2018-08-17T16:14:18.558Z,29.30
2018-08-17T16:16:46.962Z,29.20
2018-08-17T16:19:15.288Z,29.40
2018-08-17T16:21:43.706Z,29.30
2018-08-17T16:24:12.151Z,29.00
2018-08-17T16:26:40.542Z,28.80
2018-08-17T16:29:08.943Z,28.80
2018-08-17T16:31:39.922Z,28.80
2018-08-17T16:34:10.141Z,28.60
2018-08-17T16:36:42.999Z,28.50
2018-08-17T16:39:15.194Z,28.40
2018-08-17T16:41:43.906Z,28.40
2018-08-17T16:44:12.907Z,28.40
2018-08-17T16:46:42.347Z,28.40
2018-08-17T16:49:10.851Z,28.40
2018-08-17T16:51:39.571Z,28.10
2018-08-17T16:54:08.051Z,28.00
2018-08-17T16:56:36.960Z,27.90
2018-08-17T16:59:05.815Z,27.90
2018-08-17T17:01:34.210Z,27.60
2018-08-17T17:04:02.740Z,27.50
2018-08-17T17:06:31.257Z,27.60
2018-08-17T17:09:02.704Z,27.60
2018-08-17T17:11:31.197Z,27.50
2018-08-17T17:13:59.667Z,27.50
2018-08-17T17:16:37.088Z,27.30
2018-08-17T17:19:09.222Z,27.40
2018-08-17T17:21:40.475Z,27.30
2018-08-17T17:24:09.054Z,27.20
2018-08-17T17:26:37.589Z,27.00
2018-08-17T17:29:07.153Z,26.90
2018-08-17T17:31:36.150Z,26.60
2018-08-17T17:34:04.881Z,26.50
2018-08-17T17:36:33.379Z,26.50
2018-08-17T17:39:01.966Z,26.50
2018-08-17T17:41:30.523Z,26.40
2018-08-17T17:43:59.102Z,26.40
2018-08-17T17:46:27.629Z,26.40
2018-08-17T17:48:56.130Z,26.40
2018-08-17T17:51:24.609Z,26.40
2018-08-17T17:53:53.387Z,26.00
2018-08-17T17:56:22.127Z,25.90
2018-08-17T17:58:52.026Z,25.80
2018-08-17T18:01:20.728Z,25.70
2018-08-17T18:03:49.378Z,25.70
2018-08-17T18:06:17.901Z,25.60
2018-08-17T18:08:46.245Z,25.50
2018-08-17T18:11:14.644Z,25.50
2018-08-17T18:13:43.010Z,25.40
2018-08-17T18:16:11.381Z,25.20
2018-08-17T18:18:39.804Z,25.00
2018-08-17T18:21:08.429Z,25.00
2018-08-17T18:23:36.797Z,25.00
2018-08-17T18:26:11.442Z,25.00
2018-08-17T18:28:39.843Z,24.90
2018-08-17T18:31:08.267Z,24.90
2018-08-17T18:33:36.709Z,24.80
2018-08-17T18:36:05.117Z,24.70
2018-08-17T18:38:33.502Z,24.70
2018-08-17T18:41:02.054Z,24.60
2018-08-17T18:43:30.734Z,24.60
2018-08-17T18:45:59.117Z,24.60
2018-08-17T18:48:31.855Z,24.50
2018-08-17T18:51:00.250Z,24.50
2018-08-17T18:53:28.620Z,24.40
2018-08-17T18:55:57.082Z,24.40
2018-08-17T18:58:25.465Z,24.30
2018-08-17T19:00:53.931Z,24.30
2018-08-17T19:03:22.379Z,24.30
2018-08-17T19:05:50.742Z,24.30
2018-08-17T19:08:19.087Z,24.20
2018-08-17T19:10:47.454Z,24.20
2018-08-17T19:13:15.835Z,24.20
2018-08-17T19:15:50.280Z,24.10
2018-08-17T19:18:18.779Z,24.10
2018-08-17T19:20:47.246Z,24.10
2018-08-17T19:23:15.651Z,24.10
2018-08-17T19:25:44.160Z,24.10
2018-08-17T19:28:12.542Z,24.00
2018-08-17T19:30:41.886Z,23.90
2018-08-17T19:33:11.893Z,23.90
2018-08-17T19:35:47.622Z,23.80
2018-08-17T19:38:16.030Z,23.70
2018-08-17T19:40:44.422Z,23.70
2018-08-17T19:43:12.842Z,23.60
2018-08-17T19:45:41.255Z,23.60
2018-08-17T19:48:09.829Z,23.50
2018-08-17T19:50:38.326Z,23.50
2018-08-17T19:53:06.797Z,23.50
2018-08-17T19:55:35.250Z,23.40
2018-08-17T19:58:03.697Z,23.40
2018-08-17T20:00:32.152Z,23.30
2018-08-17T20:03:00.718Z,23.20
2018-08-17T20:05:29.115Z,23.20
2018-08-17T20:07:57.530Z,23.20
2018-08-17T20:10:26.125Z,23.10
2018-08-17T20:12:54.527Z,23.10
2018-08-17T20:15:22.952Z,23.00
2018-08-17T20:17:52.168Z,23.00
2018-08-17T20:20:20.606Z,23.00
2018-08-17T20:22:48.943Z,22.90
2018-08-17T20:25:18.087Z,22.90
2018-08-17T20:27:47.114Z,22.90
2018-08-17T20:30:20.705Z,22.90
2018-08-17T20:32:49.187Z,22.80
2018-08-17T20:35:17.615Z,22.90
2018-08-17T20:37:48.408Z,22.90
2018-08-17T20:40:17.146Z,22.90
2018-08-17T20:42:45.794Z,22.90
2018-08-17T20:45:14.229Z,22.80
2018-08-17T20:47:43.022Z,22.80
2018-08-17T20:50:13.573Z,22.80
2018-08-17T20:52:51.350Z,22.70
2018-08-17T20:55:20.428Z,22.70
2018-08-17T20:57:51.146Z,22.70
2018-08-17T21:00:19.749Z,22.70
2018-08-17T21:02:48.122Z,22.70
2018-08-17T21:05:16.778Z,22.70
2018-08-17T21:07:45.994Z,22.70
2018-08-17T21:10:14.470Z,22.70
2018-08-17T21:12:43.039Z,22.70
2018-08-17T21:15:11.408Z,22.80
2018-08-17T21:17:39.843Z,22.70
2018-08-17T21:20:08.233Z,22.80
2018-08-17T21:22:36.690Z,22.80
2018-08-17T21:25:05.645Z,22.80
2018-08-17T21:27:34.358Z,22.80
2018-08-17T21:30:03.219Z,22.70
2018-08-17T21:32:31.700Z,22.80
2018-08-17T21:35:00.211Z,22.70
2018-08-17T21:37:28.779Z,22.70
2018-08-17T21:39:57.250Z,22.60
2018-08-17T21:42:25.672Z,22.70
2018-08-17T21:44:54.110Z,22.70
2018-08-17T21:47:22.485Z,22.60
2018-08-17T21:49:53.867Z,22.60
2018-08-17T21:52:23.163Z,22.60
2018-08-17T21:54:51.534Z,22.60
2018-08-17T21:57:19.891Z,22.50
2018-08-17T21:59:50.054Z,22.50
2018-08-17T22:02:19.270Z,22.40
2018-08-17T22:04:47.533Z,22.40
2018-08-17T22:07:19.543Z,22.30
2018-08-17T22:09:47.923Z,22.30
2018-08-17T22:12:16.348Z,22.30
2018-08-17T22:14:46.450Z,22.30
2018-08-17T22:17:26.801Z,22.30
2018-08-17T22:19:55.186Z,22.30
2018-08-17T22:22:23.714Z,22.30
2018-08-17T22:24:53.027Z,22.20
2018-08-17T22:27:21.979Z,22.10
2018-08-17T22:29:51.721Z,22.10
2018-08-17T22:32:20.360Z,22.00
2018-08-17T22:34:49.135Z,22.00
2018-08-17T22:37:17.641Z,21.90
2018-08-17T22:39:46.322Z,21.80
2018-08-17T22:42:17.343Z,21.80
2018-08-17T22:44:46.113Z,21.90
2018-08-17T22:47:20.178Z,21.90
2018-08-17T22:49:49.206Z,21.90
2018-08-17T22:52:17.625Z,21.90
2018-08-17T22:54:51.199Z,21.90
2018-08-17T22:57:19.605Z,21.90
2018-08-17T23:00:21.693Z,21.80
2018-08-17T23:02:51.270Z,21.80
2018-08-17T23:05:21.945Z,21.80
2018-08-17T23:07:50.310Z,21.80
2018-08-17T23:10:19.767Z,21.80
2018-08-17T23:12:49.303Z,21.90
2018-08-17T23:15:17.670Z,21.80
2018-08-17T23:17:54.921Z,21.70
2018-08-17T23:20:28.599Z,21.70
2018-08-17T23:22:58.126Z,21.70
2018-08-17T23:25:26.542Z,21.60
2018-08-17T23:27:55.013Z,21.70
2018-08-17T23:30:23.399Z,21.60
2018-08-17T23:32:51.735Z,21.60
2018-08-17T23:35:20.140Z,21.60
2018-08-17T23:37:48.543Z,21.60
2018-08-17T23:40:16.926Z,21.50
2018-08-17T23:42:45.329Z,21.50
2018-08-17T23:45:15.227Z,21.50
2018-08-17T23:47:43.641Z,21.50
2018-08-17T23:50:13.058Z,21.30
2018-08-17T23:52:41.551Z,21.30
2018-08-17T23:55:12.074Z,21.30
2018-08-17T23:57:40.459Z,21.30
